createdAt,value
2022-10-04T00:01:45.791Z,95501.31
2022-10-04T00:04:24.994Z,95513.41
2022-10-04T00:06:54.637Z,95509.78
2022-10-04T00:09:23.732Z,95513.03
2022-10-04T00:11:54.410Z,95517.69
2022-10-04T00:14:25.763Z,95509.50
2022-10-04T00:16:53.526Z,95532.53
2022-10-04T00:19:19.959Z,95534.38
2022-10-04T00:21:58.216Z,95532.81
2022-10-04T00:24:33.728Z,95534.81
2022-10-04T00:27:24.069Z,95536.41
2022-10-04T00:30:02.491Z,95528.38
2022-10-04T00:32:59.770Z,95534.13
2022-10-04T00:35:26.162Z,95531.84
2022-10-04T00:38:09.127Z,95523.78
2022-10-04T00:40:42.208Z,95523.97
2022-10-04T00:43:24.110Z,95514.09
2022-10-04T00:46:07.145Z,95515.50
2022-10-04T00:48:52.217Z,95515.03
2022-10-04T00:51:52.272Z,95487.19
2022-10-04T00:54:23.996Z,95505.47
2022-10-04T00:56:56.015Z,95502.53
2022-10-04T00:59:33.651Z,95500.03
2022-10-04T01:02:08.207Z,95498.41
2022-10-04T01:04:56.569Z,95500.03
2022-10-04T01:07:30.258Z,95496.56
2022-10-04T01:10:02.239Z,95495.75
2022-10-04T01:12:42.819Z,95493.91
2022-10-04T01:15:30.888Z,95504.22
2022-10-04T01:18:12.109Z,95483.59
2022-10-04T01:20:49.831Z,95498.41
2022-10-04T01:23:31.335Z,95496.56
2022-10-04T01:25:58.965Z,95491.41
2022-10-04T01:28:26.923Z,95488.09
2022-10-04T01:30:54.357Z,95490.59
2022-10-04T01:33:20.958Z,95486.25
2022-10-04T01:35:48.177Z,95488.09
2022-10-04T01:38:14.834Z,95481.25
2022-10-04T01:40:53.972Z,95476.53
2022-10-04T01:43:29.686Z,95485.97
2022-10-04T01:46:06.650Z,95484.94
2022-10-04T01:48:37.690Z,95491.84
2022-10-04T01:51:16.463Z,95490.88
2022-10-04T01:53:54.148Z,95486.19
2022-10-04T01:56:25.882Z,95477.72
2022-10-04T01:58:59.032Z,95490.44
2022-10-04T02:01:55.619Z,95490.22
2022-10-04T02:04:28.485Z,95488.38
2022-10-04T02:06:57.090Z,95492.88
2022-10-04T02:09:27.300Z,95485.16
2022-10-04T02:11:54.728Z,95486.03
2022-10-04T02:14:27.997Z,95470.41
2022-10-04T02:16:54.785Z,95471.16
2022-10-04T02:19:28.502Z,95468.94
2022-10-04T02:21:56.058Z,95462.63
2022-10-04T02:24:22.707Z,95455.31
2022-10-04T02:26:51.064Z,95441.94
2022-10-04T02:29:19.494Z,95440.09
2022-10-04T02:32:07.182Z,95447.91
2022-10-04T02:34:34.203Z,95440.16
2022-10-04T02:37:04.041Z,95441.88
2022-10-04T02:39:50.056Z,95436.34
2022-10-04T02:42:28.274Z,95421.41
2022-10-04T02:45:10.051Z,95425.16
2022-10-04T02:47:54.901Z,95409.69
2022-10-04T02:50:30.270Z,95418.31
2022-10-04T02:53:09.774Z,95425.81
2022-10-04T02:55:36.275Z,95429.13
2022-10-04T02:58:10.862Z,95427.88
2022-10-04T03:00:48.453Z,95432.72
2022-10-04T03:03:35.083Z,95433.41
2022-10-04T03:06:03.893Z,95425.44
2022-10-04T03:08:44.220Z,95432.22
2022-10-04T03:11:14.025Z,95419.41
2022-10-04T03:13:44.549Z,95411.09
2022-10-04T03:16:11.252Z,95419.47
2022-10-04T03:18:38.072Z,95421.09
2022-10-04T03:21:11.183Z,95438.25
2022-10-04T03:23:39.371Z,95423.59
2022-10-04T03:26:26.896Z,95424.69
2022-10-04T03:28:53.610Z,95449.25
2022-10-04T03:31:20.370Z,95446.63
2022-10-04T03:33:47.651Z,95438.63
2022-10-04T03:36:18.132Z,95446.72
2022-10-04T03:38:47.175Z,95448.41
2022-10-04T03:41:14.899Z,95449.72
2022-10-04T03:43:47.184Z,95444.75
2022-10-04T03:46:14.693Z,95459.91
2022-10-04T03:48:45.924Z,95437.34
2022-10-04T03:51:27.096Z,95459.28
2022-10-04T03:53:57.344Z,95451.53
2022-10-04T03:56:33.511Z,95445.47
2022-10-04T03:59:04.341Z,95435.47
2022-10-04T04:01:39.051Z,95444.97
2022-10-04T04:04:36.835Z,95442.19
2022-10-04T04:07:16.351Z,95438.91
2022-10-04T04:09:52.458Z,95437.88
2022-10-04T04:12:27.113Z,95430.38
2022-10-04T04:14:54.284Z,95433.16
2022-10-04T04:17:47.721Z,95435.44
2022-10-04T04:20:28.943Z,95437.06
2022-10-04T04:23:22.737Z,95431.53
2022-10-04T04:25:54.719Z,95431.63
2022-10-04T04:28:21.365Z,95437.88
2022-10-04T04:30:50.701Z,95444.16
2022-10-04T04:33:44.940Z,95439.09
2022-10-04T04:36:14.219Z,95451.72
2022-10-04T04:39:00.608Z,95458.53
2022-10-04T04:41:31.379Z,95455.97
2022-10-04T04:43:58.389Z,95448.72
2022-10-04T04:46:27.942Z,95429.16
2022-10-04T04:49:02.622Z,95430.03
2022-10-04T04:51:31.515Z,95428.16
2022-10-04T04:54:02.308Z,95435.41
2022-10-04T04:56:30.016Z,95431.88
2022-10-04T04:58:59.657Z,95437.19
2022-10-04T05:01:29.117Z,95434.53
2022-10-04T05:04:12.771Z,95418.28
2022-10-04T05:06:42.003Z,95427.19
2022-10-04T05:09:35.934Z,95432.69
2022-10-04T05:12:10.451Z,95433.34
2022-10-04T05:14:45.152Z,95432.47
2022-10-04T05:17:25.037Z,95437.19
2022-10-04T05:19:56.100Z,95446.31
2022-10-04T05:22:25.400Z,95442.09
2022-10-04T05:24:56.452Z,95433.78
2022-10-04T05:27:30.504Z,95450.25
2022-10-04T05:30:21.849Z,95451.91
2022-10-04T05:33:10.697Z,95430.09
2022-10-04T05:35:54.174Z,95439.16
2022-10-04T05:38:27.783Z,95442.69
2022-10-04T05:41:20.879Z,95437.78
2022-10-04T05:43:52.520Z,95430.69
2022-10-04T05:46:29.145Z,95408.97
2022-10-04T05:49:00.733Z,95432.75
2022-10-04T05:51:37.673Z,95438.84
2022-10-04T05:54:05.123Z,95439.06
2022-10-04T05:57:16.877Z,95441.28
2022-10-04T06:00:11.177Z,95449.34
2022-10-04T06:03:16.041Z,95452.97
2022-10-04T06:05:59.355Z,95451.75
2022-10-04T06:09:04.748Z,95443.59
2022-10-04T06:12:01.173Z,95445.25
2022-10-04T06:14:46.258Z,95438.69
2022-10-04T06:17:38.291Z,95441.78
2022-10-04T06:20:19.854Z,95432.63
2022-10-04T06:22:48.125Z,95426.41
2022-10-04T06:25:26.430Z,95430.63
2022-10-04T06:28:15.911Z,95420.22
2022-10-04T06:30:59.003Z,95421.44
2022-10-04T06:33:37.675Z,95408.50
2022-10-04T06:36:28.791Z,95423.09
2022-10-04T06:39:04.273Z,95428.97
2022-10-04T06:42:08.771Z,95429.66
2022-10-04T06:45:05.245Z,95447.16
2022-10-04T06:48:02.944Z,95444.69
2022-10-04T06:51:00.478Z,95448.06
2022-10-04T06:53:36.025Z,95450.66
2022-10-04T06:56:35.272Z,95463.88
2022-10-04T06:59:28.223Z,95480.41
2022-10-04T07:02:07.095Z,95487.44
2022-10-04T07:05:09.336Z,95497.88
2022-10-04T07:07:44.914Z,95496.38
2022-10-04T07:10:31.028Z,95511.09
2022-10-04T07:13:03.442Z,95505.09
2022-10-04T07:15:54.412Z,95496.22
2022-10-04T07:18:27.766Z,95488.59
2022-10-04T07:21:04.630Z,95492.38
2022-10-04T07:23:43.953Z,95481.81
2022-10-04T07:26:39.153Z,95459.22
2022-10-04T07:29:22.756Z,95439.53
2022-10-04T07:32:03.037Z,95432.09
2022-10-04T07:34:31.520Z,95441.41
2022-10-04T07:37:03.149Z,95446.81
2022-10-04T07:39:32.247Z,95451.00
2022-10-04T07:42:13.604Z,95459.66
2022-10-04T07:44:48.480Z,95460.84
2022-10-04T07:47:25.739Z,95453.63
2022-10-04T07:49:53.969Z,95465.44
2022-10-04T07:52:50.778Z,95458.69
2022-10-04T07:55:26.099Z,95460.69
2022-10-04T07:58:19.775Z,95442.94
2022-10-04T08:00:52.591Z,95453.94
2022-10-04T08:03:39.256Z,95441.41
2022-10-04T08:06:23.322Z,95441.00
2022-10-04T08:09:13.744Z,95442.06
2022-10-04T08:11:46.293Z,95441.63
2022-10-04T08:14:28.276Z,95448.31
2022-10-04T08:17:01.635Z,95444.84
2022-10-04T08:19:43.085Z,95448.25
2022-10-04T08:22:26.372Z,95455.31
2022-10-04T08:24:58.825Z,95466.38
2022-10-04T08:28:10.250Z,95478.72
2022-10-04T08:30:58.380Z,95482.78
2022-10-04T08:33:37.029Z,95494.19
2022-10-04T08:36:25.263Z,95491.13
2022-10-04T08:38:58.555Z,95504.09
2022-10-04T08:41:53.984Z,95511.88
2022-10-04T08:44:39.292Z,95508.91
2022-10-04T08:47:32.102Z,95507.97
2022-10-04T08:50:30.227Z,95500.03
2022-10-04T08:53:24.904Z,95515.78
2022-10-04T08:56:00.715Z,95505.94
2022-10-04T08:59:00.351Z,95491.94
2022-10-04T09:01:44.813Z,95504.88
2022-10-04T09:04:36.294Z,95512.84
2022-10-04T09:07:35.048Z,95510.00
2022-10-04T09:10:32.983Z,95514.06
2022-10-04T09:13:30.934Z,95502.91
2022-10-04T09:16:06.185Z,95504.44
2022-10-04T09:19:01.607Z,95501.66
2022-10-04T09:21:54.160Z,95495.72
2022-10-04T09:24:55.671Z,95492.94
2022-10-04T09:27:54.262Z,95512.91
2022-10-04T09:30:56.272Z,95502.16
2022-10-04T09:33:58.972Z,95501.50
2022-10-04T09:36:41.329Z,95499.72
2022-10-04T09:39:30.275Z,95501.53
2022-10-04T09:42:30.988Z,95493.25
2022-10-04T09:45:31.021Z,95497.47
2022-10-04T09:48:25.012Z,95493.38
2022-10-04T09:51:29.460Z,95497.25
2022-10-04T09:54:04.804Z,95497.78
2022-10-04T09:57:01.236Z,95495.75
2022-10-04T10:00:18.484Z,95486.88
2022-10-04T10:03:15.634Z,95464.22
2022-10-04T10:06:07.555Z,95470.50
2022-10-04T10:08:56.413Z,95466.59
2022-10-04T10:11:50.639Z,95458.78
2022-10-04T10:14:56.076Z,95447.34
2022-10-04T10:17:47.784Z,95452.66
2022-10-04T10:20:27.077Z,95459.53
2022-10-04T10:23:20.619Z,95452.19
2022-10-04T10:26:27.467Z,95441.59
2022-10-04T10:29:31.559Z,95450.97
2022-10-04T10:32:22.798Z,95453.66
2022-10-04T10:35:27.103Z,95461.28
2022-10-04T10:38:18.511Z,95451.22
2022-10-04T10:40:45.366Z,95458.69
2022-10-04T10:43:18.331Z,95472.50
2022-10-04T10:46:07.017Z,95463.72
2022-10-04T10:48:59.995Z,95469.53
2022-10-04T10:51:49.151Z,95460.34
2022-10-04T10:54:43.463Z,95463.94
2022-10-04T10:57:37.675Z,95456.94
2022-10-04T11:00:19.627Z,95467.03
2022-10-04T11:03:23.971Z,95473.50
2022-10-04T11:06:15.589Z,95458.59
2022-10-04T11:09:06.727Z,95468.66
2022-10-04T11:12:00.706Z,95463.34
2022-10-04T11:14:50.521Z,95464.59
2022-10-04T11:17:38.037Z,95444.31
2022-10-04T11:20:44.213Z,95475.63
2022-10-04T11:23:37.157Z,95466.00
2022-10-04T11:26:18.110Z,95473.03
2022-10-04T11:29:11.681Z,95469.47
2022-10-04T11:32:18.062Z,95480.81
2022-10-04T11:35:22.313Z,95477.59
2022-10-04T11:38:07.400Z,95471.19
2022-10-04T11:41:01.748Z,95476.41
2022-10-04T11:43:56.001Z,95471.88
2022-10-04T11:46:54.876Z,95463.72
2022-10-04T11:49:44.696Z,95463.84
2022-10-04T11:52:49.496Z,95456.13
2022-10-04T11:55:47.013Z,95446.59
2022-10-04T11:58:35.216Z,95450.50
2022-10-04T12:01:01.609Z,95430.72
2022-10-04T12:04:04.905Z,95428.88
2022-10-04T12:06:53.332Z,95435.25
2022-10-04T12:09:27.289Z,95434.75
2022-10-04T12:12:38.240Z,95436.25
2022-10-04T12:15:23.270Z,95430.63
2022-10-04T12:18:08.620Z,95429.94
2022-10-04T12:21:02.878Z,95410.16
2022-10-04T12:23:29.592Z,95420.13
2022-10-04T12:26:23.761Z,95414.19
2022-10-04T12:29:14.825Z,95404.22
2022-10-04T12:31:53.265Z,95403.31
2022-10-04T12:34:37.068Z,95400.53
2022-10-04T12:37:18.011Z,95405.88
2022-10-04T12:40:07.527Z,95391.81
2022-10-04T12:42:44.292Z,95399.91
2022-10-04T12:45:32.436Z,95401.19
2022-10-04T12:48:20.763Z,95399.19
2022-10-04T12:50:52.143Z,95397.84
2022-10-04T12:53:32.060Z,95389.59
2022-10-04T12:56:04.296Z,95391.91
2022-10-04T12:58:57.239Z,95395.88
2022-10-04T13:01:35.871Z,95386.28
2022-10-04T13:04:33.164Z,95381.63
2022-10-04T13:07:22.797Z,95388.00
2022-10-04T13:10:19.190Z,95376.69
2022-10-04T13:12:45.817Z,95372.31
2022-10-04T13:17:22.290Z,95369.91
2022-10-04T13:18:21.994Z,95373.25
2022-10-04T13:20:59.960Z,95369.13
2022-10-04T13:23:40.556Z,95363.72
2022-10-04T13:26:25.262Z,95367.94
2022-10-04T13:29:02.812Z,95374.22
2022-10-04T13:31:39.115Z,95360.44
2022-10-04T13:34:09.333Z,95395.38
2022-10-04T13:37:23.997Z,95391.59
2022-10-04T13:40:23.530Z,95385.59
2022-10-04T13:43:08.003Z,95396.66
2022-10-04T13:45:58.940Z,95390.81
2022-10-04T13:48:44.124Z,95401.53
2022-10-04T13:51:43.587Z,95386.06
2022-10-04T13:54:40.809Z,95388.72
2022-10-04T13:57:50.202Z,95390.69
2022-10-04T14:00:44.937Z,95390.69
2022-10-04T14:03:42.357Z,95392.28
2022-10-04T14:06:45.714Z,95393.34
2022-10-04T14:09:30.945Z,95399.22
2022-10-04T14:12:07.455Z,95395.31
2022-10-04T14:14:55.224Z,95396.53
2022-10-04T14:17:33.756Z,95402.34
2022-10-04T14:20:30.930Z,95389.19
2022-10-04T14:23:33.658Z,95391.63
2022-10-04T14:26:19.304Z,95377.06
2022-10-04T14:29:10.040Z,95396.34
2022-10-04T14:31:57.568Z,95392.66
2022-10-04T14:34:39.975Z,95389.28
2022-10-04T14:37:37.530Z,95391.63
2022-10-04T14:40:35.816Z,95382.72
2022-10-04T14:43:15.487Z,95401.53
2022-10-04T14:46:01.009Z,95390.94
2022-10-04T14:49:04.640Z,95396.03
2022-10-04T14:51:44.369Z,95405.63
2022-10-04T14:54:25.481Z,95402.50
2022-10-04T14:57:03.961Z,95383.78
2022-10-04T14:59:53.828Z,95404.72
2022-10-04T15:02:40.358Z,95401.03
2022-10-04T15:05:31.675Z,95406.09
2022-10-04T15:08:25.617Z,95389.00
2022-10-04T15:11:06.203Z,95402.19
2022-10-04T15:13:47.099Z,95401.13
2022-10-04T15:16:32.480Z,95403.34
2022-10-04T15:19:12.171Z,95399.88
2022-10-04T15:21:41.359Z,95410.03
2022-10-04T15:24:24.264Z,95397.78
2022-10-04T15:27:38.495Z,95406.34
2022-10-04T15:30:37.382Z,95396.63
2022-10-04T15:33:28.753Z,95413.03
2022-10-04T15:36:38.033Z,95411.41
2022-10-04T15:39:39.278Z,95412.13
2022-10-04T15:42:14.798Z,95403.00
2022-10-04T15:45:02.704Z,95411.31
2022-10-04T15:48:01.370Z,95407.84
2022-10-04T15:50:52.826Z,95410.50
2022-10-04T15:53:38.682Z,95409.69
2022-10-04T15:56:12.531Z,95401.25
2022-10-04T15:59:19.077Z,95411.53
2022-10-04T16:02:09.595Z,95394.34
2022-10-04T16:05:00.722Z,95402.06
2022-10-04T16:07:28.025Z,95410.50
2022-10-04T16:10:32.896Z,95408.06
2022-10-04T16:13:17.483Z,95408.06
2022-10-04T16:15:51.174Z,95399.31
2022-10-04T16:18:41.887Z,95407.28
2022-10-04T16:21:37.065Z,95415.22
2022-10-04T16:24:21.570Z,95417.09
2022-10-04T16:26:50.382Z,95420.78
2022-10-04T16:29:40.820Z,95412.81
2022-10-04T16:32:19.161Z,95412.00
2022-10-04T16:34:57.235Z,95410.16
2022-10-04T16:37:23.665Z,95406.69
2022-10-04T16:40:05.912Z,95402.88
2022-10-04T16:42:44.355Z,95395.38
2022-10-04T16:45:11.762Z,95411.19
2022-10-04T16:47:47.362Z,95410.97
2022-10-04T16:50:34.418Z,95420.19
2022-10-04T16:53:38.244Z,95409.81
2022-10-04T16:56:16.312Z,95422.03
2022-10-04T16:58:50.921Z,95395.25
2022-10-04T17:01:23.689Z,95415.13
2022-10-04T17:04:11.792Z,95415.91
2022-10-04T17:06:59.495Z,95412.47
2022-10-04T17:09:50.984Z,95413.50
2022-10-04T17:12:50.469Z,95418.81
2022-10-04T17:15:27.538Z,95417.19
2022-10-04T17:18:09.097Z,95410.25
2022-10-04T17:20:41.849Z,95416.16
2022-10-04T17:23:34.380Z,95408.28
2022-10-04T17:26:34.989Z,95414.50
2022-10-04T17:29:28.696Z,95423.53
2022-10-04T17:32:17.492Z,95410.72
2022-10-04T17:35:03.119Z,95416.84
2022-10-04T17:37:38.862Z,95417.06
2022-10-04T17:40:11.752Z,95417.53
2022-10-04T17:42:52.392Z,95417.53
2022-10-04T17:45:40.830Z,95410.13
2022-10-04T17:48:40.228Z,95416.13
2022-10-04T17:51:58.007Z,95412.56
2022-10-04T17:54:47.017Z,95412.66
2022-10-04T17:57:41.692Z,95413.84
2022-10-04T18:00:12.962Z,95418.56
2022-10-04T18:03:09.485Z,95418.09
2022-10-04T18:05:42.000Z,95416.50
2022-10-04T18:08:40.317Z,95405.63
2022-10-04T18:11:18.376Z,95404.03
2022-10-04T18:13:54.456Z,95396.97
2022-10-04T18:16:30.536Z,95406.09
2022-10-04T18:19:02.136Z,95407.72
2022-10-04T18:21:31.214Z,95394.44
2022-10-04T18:24:03.552Z,95390.41
2022-10-04T18:26:33.669Z,95386.72
2022-10-04T18:29:02.484Z,95383.88
2022-10-04T18:31:32.590Z,95398.63
2022-10-04T18:34:11.464Z,95405.25
2022-10-04T18:37:20.283Z,95406.78
2022-10-04T18:39:53.218Z,95385.63
2022-10-04T18:42:37.042Z,95408.63
2022-10-04T18:45:23.655Z,95414.28
2022-10-04T18:47:53.646Z,95421.66
2022-10-04T18:50:20.219Z,95404.19
2022-10-04T18:52:54.452Z,95419.03
2022-10-04T18:55:37.879Z,95401.34
2022-10-04T19:04:26.747Z,95422.03
2022-10-04T19:06:59.494Z,95427.72
2022-10-04T19:09:46.732Z,95441.03
2022-10-04T19:12:24.339Z,95441.44
2022-10-04T19:15:41.635Z,95458.97
2022-10-04T19:18:33.777Z,95468.34
2022-10-04T19:21:06.765Z,95462.00
2022-10-04T19:24:07.836Z,95462.00
2022-10-04T19:26:40.822Z,95461.56
2022-10-04T19:29:10.487Z,95464.22
2022-10-04T19:31:47.266Z,95462.00
2022-10-04T19:34:20.695Z,95464.66
2022-10-04T19:36:56.852Z,95465.69
2022-10-04T19:39:32.664Z,95474.47
2022-10-04T19:42:09.801Z,95471.38
2022-10-04T19:45:06.294Z,95477.59
2022-10-04T19:47:52.144Z,95466.59
2022-10-04T19:50:51.069Z,95480.59
2022-10-04T19:53:28.169Z,95477.00
2022-10-04T19:55:55.935Z,95465.34
2022-10-04T19:58:38.041Z,95467.59
2022-10-04T20:01:12.780Z,95451.69
2022-10-04T20:03:39.941Z,95458.34
2022-10-04T20:06:08.515Z,95464.94
2022-10-04T20:08:47.247Z,95448.22
2022-10-04T20:11:27.795Z,95463.00
2022-10-04T20:14:10.209Z,95445.34
2022-10-04T20:16:49.689Z,95466.47
2022-10-04T20:19:45.973Z,95468.53
2022-10-04T20:22:12.356Z,95466.69
2022-10-04T20:24:41.567Z,95460.94
2022-10-04T20:27:23.296Z,95459.09
2022-10-04T20:29:51.737Z,95458.38
2022-10-04T20:32:27.172Z,95461.03
2022-10-04T20:34:55.599Z,95462.06
2022-10-04T20:37:42.175Z,95469.81
2022-10-04T20:40:08.859Z,95477.50
2022-10-04T20:42:38.769Z,95476.59
2022-10-04T20:45:11.335Z,95466.56
2022-10-04T20:47:54.757Z,95473.94
2022-10-04T20:50:43.370Z,95463.03
2022-10-04T20:53:17.788Z,95476.84
2022-10-04T20:55:45.978Z,95478.31
2022-10-04T20:58:32.076Z,95478.53
2022-10-04T21:01:06.476Z,95478.38
2022-10-04T21:03:33.036Z,95456.94
2022-10-04T21:06:08.484Z,95469.84
2022-10-04T21:08:36.129Z,95488.78
2022-10-04T21:11:20.490Z,95503.94
2022-10-04T21:13:58.904Z,95497.78
2022-10-04T21:16:47.357Z,95497.25
2022-10-04T21:19:32.464Z,95504.13
2022-10-04T21:22:00.686Z,95508.41
2022-10-04T21:24:37.616Z,95501.03
2022-10-04T21:27:06.591Z,95507.38
2022-10-04T21:29:32.984Z,95493.13
2022-10-04T21:31:59.881Z,95498.59
2022-10-04T21:34:48.651Z,95502.88
2022-10-04T21:37:13.221Z,95504.72
2022-10-04T21:39:39.683Z,95490.28
2022-10-04T21:42:06.096Z,95490.91
2022-10-04T21:44:32.684Z,95502.88
2022-10-04T21:46:59.106Z,95504.28
2022-10-04T21:49:25.765Z,95503.72
2022-10-04T21:51:52.656Z,95498.84
2022-10-04T21:54:19.111Z,95497.16
2022-10-04T21:56:45.784Z,95494.59
2022-10-04T21:59:12.328Z,95503.09
2022-10-04T22:01:38.772Z,95499.47
2022-10-04T22:04:05.155Z,95503.31
2022-10-04T22:06:31.618Z,95496.25
2022-10-04T22:08:58.139Z,95505.78
2022-10-04T22:11:24.533Z,95508.06
2022-10-04T22:13:51.176Z,95492.59
2022-10-04T22:16:17.673Z,95509.31
2022-10-04T22:18:44.121Z,95515.41
2022-10-04T22:21:10.612Z,95512.13
2022-10-04T22:23:40.004Z,95513.53
2022-10-04T22:26:12.472Z,95507.28
2022-10-04T22:28:43.975Z,95508.69
2022-10-04T22:31:15.044Z,95500.03
2022-10-04T22:33:43.405Z,95507.16
2022-10-04T22:36:39.528Z,95508.78
2022-10-04T22:39:08.749Z,95513.38
2022-10-04T22:41:43.645Z,95512.31
2022-10-04T22:44:17.814Z,95502.97
2022-10-04T22:46:51.400Z,95505.63
2022-10-04T22:49:23.774Z,95509.66
2022-10-04T22:51:52.992Z,95519.41
2022-10-04T22:54:21.979Z,95517.44
2022-10-04T22:56:49.237Z,95520.47
2022-10-04T22:59:19.359Z,95524.63
2022-10-04T23:01:46.474Z,95518.72
2022-10-04T23:04:24.321Z,95519.09
2022-10-04T23:06:52.052Z,95506.41
2022-10-04T23:09:19.448Z,95518.97
2022-10-04T23:11:46.337Z,95506.66
2022-10-04T23:14:12.996Z,95501.69
2022-10-04T23:16:39.492Z,95512.00
2022-10-04T23:19:08.586Z,95517.03
2022-10-04T23:21:37.991Z,95515.72
2022-10-04T23:24:16.553Z,95524.69
2022-10-04T23:26:46.228Z,95518.69
2022-10-04T23:29:30.098Z,95527.00
2022-10-04T23:31:57.368Z,95530.81
2022-10-04T23:34:34.540Z,95523.09
2022-10-04T23:37:01.052Z,95523.41
2022-10-04T23:39:33.771Z,95528.19
2022-10-04T23:42:05.301Z,95511.91
2022-10-04T23:44:37.120Z,95526.94
2022-10-04T23:47:14.121Z,95523.03
2022-10-04T23:49:40.747Z,95523.03
2022-10-04T23:52:13.685Z,95509.91
2022-10-04T23:54:40.092Z,95526.84
2022-10-04T23:57:11.256Z,95522.00
2022-10-04T23:59:38.913Z,95522.38
